createdAt,value
2022-12-03T00:00:59.531Z,14.27
2022-12-03T00:03:26.514Z,13.40
2022-12-03T00:05:53.771Z,12.93
2022-12-03T00:08:20.641Z,14.63
2022-12-03T00:10:49.877Z,14.75
2022-12-03T00:13:16.620Z,14.18
2022-12-03T00:15:44.502Z,15.75
2022-12-03T00:18:11.488Z,14.60
2022-12-03T00:20:38.248Z,13.60
2022-12-03T00:23:04.955Z,13.93
2022-12-03T00:25:31.722Z,14.02
2022-12-03T00:27:59.097Z,13.93
2022-12-03T00:30:25.959Z,14.20
2022-12-03T00:33:03.381Z,13.70
2022-12-03T00:35:30.283Z,14.27
2022-12-03T00:37:57.083Z,13.27
2022-12-03T00:40:24.537Z,14.77
2022-12-03T00:42:51.483Z,14.00
2022-12-03T00:45:18.348Z,13.68
2022-12-03T00:47:45.246Z,14.40
2022-12-03T00:50:12.224Z,13.35
2022-12-03T00:52:39.533Z,12.20
2022-12-03T00:55:06.568Z,13.20
2022-12-03T00:57:33.333Z,13.82
2022-12-03T01:00:02.826Z,14.00
2022-12-03T01:02:29.718Z,13.38
2022-12-03T01:05:01.713Z,13.60
2022-12-03T01:07:28.716Z,13.43
2022-12-03T01:09:58.055Z,14.68
2022-12-03T01:12:32.199Z,13.68
2022-12-03T01:14:59.132Z,13.57
2022-12-03T01:17:25.891Z,14.65
2022-12-03T01:19:53.408Z,14.50
2022-12-03T01:22:20.473Z,14.02
2022-12-03T01:24:47.508Z,13.82
2022-12-03T01:27:14.371Z,14.68
2022-12-03T01:29:41.114Z,14.18
2022-12-03T01:32:19.594Z,14.23
2022-12-03T01:34:48.398Z,13.05
2022-12-03T01:37:15.908Z,13.93
2022-12-03T01:39:46.019Z,13.45
2022-12-03T01:42:18.175Z,13.75
2022-12-03T01:44:45.444Z,13.35
2022-12-03T01:47:17.827Z,13.20
2022-12-03T01:49:48.475Z,13.10
2022-12-03T01:52:17.972Z,13.15
2022-12-03T01:54:48.404Z,14.05
2022-12-03T01:57:27.215Z,13.43
2022-12-03T01:59:55.759Z,13.70
2022-12-03T02:02:26.184Z,13.25
2022-12-03T02:04:54.131Z,13.90
2022-12-03T02:07:31.171Z,13.70
2022-12-03T02:10:01.922Z,13.73
2022-12-03T02:12:32.550Z,14.00
2022-12-03T02:14:59.747Z,13.38
2022-12-03T02:17:27.379Z,13.48
2022-12-03T02:19:55.180Z,13.15
2022-12-03T02:22:43.838Z,13.65
2022-12-03T02:25:16.142Z,13.95
2022-12-03T02:27:43.660Z,13.68
2022-12-03T02:30:13.361Z,14.52
2022-12-03T02:32:40.415Z,13.18
2022-12-03T02:35:13.843Z,13.75
2022-12-03T02:37:41.438Z,14.05
2022-12-03T02:40:11.037Z,14.50
2022-12-03T02:42:38.031Z,13.40
2022-12-03T02:45:37.784Z,13.48
2022-12-03T02:48:11.718Z,13.73
2022-12-03T02:50:42.084Z,14.45
2022-12-03T02:53:12.551Z,13.30
2022-12-03T02:55:39.505Z,13.43
2022-12-03T02:58:07.732Z,13.68
2022-12-03T03:00:35.728Z,14.82
2022-12-03T03:03:06.640Z,13.50
2022-12-03T03:05:48.957Z,13.60
2022-12-03T03:08:16.665Z,14.70
2022-12-03T03:10:43.814Z,14.40
2022-12-03T03:13:12.960Z,13.52
2022-12-03T03:15:40.931Z,14.13
2022-12-03T03:18:08.696Z,14.30
2022-12-03T03:20:36.493Z,14.50
2022-12-03T03:23:12.627Z,13.25
2022-12-03T03:25:42.362Z,14.35
2022-12-03T03:28:09.391Z,14.25
2022-12-03T03:30:37.511Z,14.60
2022-12-03T03:33:04.457Z,14.73
2022-12-03T03:35:31.493Z,14.05
2022-12-03T03:37:58.809Z,14.40
2022-12-03T03:40:26.679Z,13.60
2022-12-03T03:42:55.010Z,14.20
2022-12-03T03:45:27.288Z,16.25
2022-12-03T03:47:57.754Z,15.15
2022-12-03T03:50:25.107Z,13.77
2022-12-03T03:52:52.117Z,13.52
2022-12-03T03:55:20.498Z,13.27
2022-12-03T03:57:47.723Z,13.40
2022-12-03T04:00:16.989Z,13.85
2022-12-03T04:02:43.925Z,13.35
2022-12-03T04:05:21.904Z,13.77
2022-12-03T04:07:48.916Z,13.80
2022-12-03T04:10:35.462Z,13.80
2022-12-03T04:13:02.697Z,13.05
2022-12-03T04:15:29.589Z,13.65
2022-12-03T04:18:14.979Z,13.18
2022-12-03T04:20:42.024Z,13.63
2022-12-03T04:23:08.905Z,14.88
2022-12-03T04:25:54.357Z,14.40
2022-12-03T04:28:39.715Z,14.32
2022-12-03T04:31:25.290Z,14.98
2022-12-03T04:34:11.134Z,14.55
2022-12-03T04:36:38.338Z,13.65
2022-12-03T04:39:05.230Z,15.35
2022-12-03T04:41:32.121Z,13.48
2022-12-03T04:44:31.132Z,14.43
2022-12-03T04:46:58.715Z,14.50
2022-12-03T04:49:25.833Z,13.27
2022-12-03T04:51:52.619Z,14.60
2022-12-03T04:54:21.310Z,13.88
2022-12-03T04:56:48.323Z,15.57
2022-12-03T04:59:16.482Z,14.80
2022-12-03T05:01:44.025Z,15.73
2022-12-03T05:04:11.601Z,14.93
2022-12-03T05:06:38.444Z,14.77
2022-12-03T05:09:06.625Z,13.93
2022-12-03T05:11:33.499Z,12.98
2022-12-03T05:14:00.328Z,13.95
2022-12-03T05:16:29.874Z,13.73
2022-12-03T05:18:59.656Z,13.95
2022-12-03T05:21:26.488Z,13.80
2022-12-03T05:23:53.222Z,14.40
2022-12-03T05:26:20.335Z,13.60
2022-12-03T05:28:47.190Z,13.95
2022-12-03T05:31:14.089Z,13.35
2022-12-03T05:33:44.215Z,13.50
2022-12-03T05:36:11.734Z,13.68
2022-12-03T05:38:38.633Z,14.25
2022-12-03T05:41:28.104Z,13.57
2022-12-03T05:43:54.988Z,13.18
2022-12-03T05:46:22.021Z,13.98
2022-12-03T05:48:49.003Z,14.13
2022-12-03T05:51:16.016Z,13.18
2022-12-03T05:53:42.790Z,13.07
2022-12-03T05:56:09.895Z,13.90
2022-12-03T05:58:36.705Z,13.70
2022-12-03T06:01:04.308Z,13.10
2022-12-03T06:03:31.819Z,14.25
2022-12-03T06:05:58.701Z,14.02
2022-12-03T06:08:26.507Z,13.25
2022-12-03T06:10:53.382Z,14.38
2022-12-03T06:13:20.140Z,13.50
2022-12-03T06:15:47.062Z,13.85
2022-12-03T06:18:14.136Z,13.90
2022-12-03T06:20:40.890Z,13.93
2022-12-03T06:23:07.642Z,14.77
2022-12-03T06:25:34.383Z,14.52
2022-12-03T06:28:01.268Z,13.68
2022-12-03T06:30:28.065Z,13.88
2022-12-03T06:32:55.051Z,14.32
2022-12-03T06:35:21.698Z,13.27
2022-12-03T06:37:49.027Z,14.55
2022-12-03T06:40:16.760Z,15.02
2022-12-03T06:42:54.221Z,14.57
2022-12-03T06:45:20.937Z,14.23
2022-12-03T06:47:47.797Z,14.02
2022-12-03T06:50:14.606Z,14.40
2022-12-03T06:52:44.082Z,13.05
2022-12-03T06:55:11.080Z,14.10
2022-12-03T06:57:37.748Z,14.55
2022-12-03T07:00:06.397Z,14.48
2022-12-03T07:02:33.086Z,14.07
2022-12-03T07:04:59.808Z,13.57
2022-12-03T07:07:26.588Z,14.70
2022-12-03T07:09:53.342Z,14.52
2022-12-03T07:12:20.552Z,15.02
2022-12-03T07:14:47.399Z,14.60
2022-12-03T07:17:14.298Z,15.17
2022-12-03T07:19:40.964Z,15.10
2022-12-03T07:22:07.937Z,14.55
2022-12-03T07:24:34.838Z,15.15
2022-12-03T07:27:01.844Z,15.18
2022-12-03T07:29:28.646Z,15.63
2022-12-03T07:31:55.395Z,15.87
2022-12-03T07:34:22.319Z,17.00
2022-12-03T07:36:49.221Z,15.63
2022-12-03T07:39:15.986Z,17.30
2022-12-03T07:41:42.882Z,16.63
2022-12-03T07:44:14.260Z,15.85
2022-12-03T07:46:42.142Z,15.90
2022-12-03T07:49:09.005Z,16.63
2022-12-03T07:51:35.869Z,15.40
2022-12-03T07:54:02.568Z,16.67
2022-12-03T07:56:29.282Z,15.87
2022-12-03T07:58:56.255Z,17.23
2022-12-03T08:01:23.171Z,16.77
2022-12-03T08:03:49.969Z,15.13
2022-12-03T08:06:16.741Z,16.55
2022-12-03T08:08:43.905Z,16.15
2022-12-03T08:11:15.020Z,16.03
2022-12-03T08:13:41.861Z,16.30
2022-12-03T08:16:20.340Z,15.37
2022-12-03T08:18:48.221Z,16.17
2022-12-03T08:21:17.130Z,14.70
2022-12-03T08:23:44.045Z,16.40
2022-12-03T08:26:23.751Z,16.60
2022-12-03T08:28:53.562Z,16.92
2022-12-03T08:31:33.774Z,16.20
2022-12-03T08:34:20.525Z,16.37
2022-12-03T08:36:55.874Z,16.58
2022-12-03T08:39:39.560Z,16.25
2022-12-03T08:42:38.632Z,15.48
2022-12-03T08:45:39.435Z,15.15
2022-12-03T08:48:28.794Z,15.50
2022-12-03T08:50:57.847Z,16.10
2022-12-03T08:53:48.600Z,16.48
2022-12-03T08:56:26.764Z,15.32
2022-12-03T08:59:06.769Z,16.02
2022-12-03T09:01:48.678Z,17.00
2022-12-03T09:04:32.107Z,15.90
2022-12-03T09:07:00.662Z,15.77
2022-12-03T09:09:27.819Z,16.55
2022-12-03T09:11:55.134Z,17.30
2022-12-03T09:14:22.929Z,16.55
2022-12-03T09:16:52.148Z,15.88
2022-12-03T09:19:24.472Z,16.70
2022-12-03T09:21:51.714Z,17.80
2022-12-03T09:24:18.564Z,16.90
2022-12-03T09:26:45.353Z,17.20
2022-12-03T09:29:12.919Z,16.13
2022-12-03T09:31:40.625Z,16.33
2022-12-03T09:34:07.840Z,17.47
2022-12-03T09:36:34.626Z,16.53
2022-12-03T09:39:01.423Z,15.52
2022-12-03T09:41:28.163Z,16.17
2022-12-03T09:44:17.190Z,15.77
2022-12-03T09:46:42.135Z,16.83
2022-12-03T09:49:15.535Z,16.52
2022-12-03T09:51:44.196Z,16.60
2022-12-03T09:54:24.302Z,15.43
2022-12-03T09:56:53.056Z,15.50
2022-12-03T09:59:24.474Z,16.67
2022-12-03T10:01:52.888Z,15.15
2022-12-03T10:04:21.601Z,16.92
2022-12-03T10:06:48.610Z,15.87
2022-12-03T10:09:22.772Z,17.13
2022-12-03T10:11:49.662Z,15.23
2022-12-03T10:14:17.895Z,14.73
2022-12-03T10:16:45.018Z,15.82
2022-12-03T10:19:23.808Z,16.15
2022-12-03T10:21:50.727Z,15.50
2022-12-03T10:24:25.812Z,15.45
2022-12-03T10:26:54.682Z,15.23
2022-12-03T10:29:33.251Z,15.43
2022-12-03T10:32:10.319Z,15.73
2022-12-03T10:34:40.464Z,14.95
2022-12-03T10:37:25.335Z,14.80
2022-12-03T10:40:21.395Z,15.70
2022-12-03T10:42:48.131Z,14.93
2022-12-03T10:45:28.770Z,15.30
2022-12-03T10:48:08.163Z,15.60
2022-12-03T10:50:35.950Z,14.03
2022-12-03T10:53:03.470Z,15.27
2022-12-03T10:55:34.794Z,13.87
2022-12-03T10:58:01.637Z,14.77
2022-12-03T11:00:28.585Z,13.77
2022-12-03T11:02:57.156Z,14.77
2022-12-03T11:05:27.594Z,14.50
2022-12-03T11:07:54.890Z,14.80
2022-12-03T11:10:22.220Z,14.20
2022-12-03T11:13:26.831Z,14.93
2022-12-03T11:15:54.134Z,14.38
2022-12-03T11:18:49.870Z,15.10
2022-12-03T11:21:20.084Z,13.70
2022-12-03T11:23:46.736Z,14.50
2022-12-03T11:26:19.620Z,15.20
2022-12-03T11:28:47.028Z,13.70
2022-12-03T11:31:41.871Z,14.43
2022-12-03T11:34:21.079Z,13.60
2022-12-03T11:37:09.893Z,14.07
2022-12-03T11:39:52.767Z,14.07
2022-12-03T11:42:25.901Z,14.10
2022-12-03T11:45:10.988Z,13.50
2022-12-03T11:47:47.073Z,14.07
2022-12-03T11:50:23.602Z,15.38
2022-12-03T11:52:55.480Z,13.98
2022-12-03T11:55:31.023Z,14.75
2022-12-03T11:58:04.540Z,13.95
2022-12-03T12:00:31.897Z,14.43
2022-12-03T12:02:59.702Z,14.32
2022-12-03T12:05:32.398Z,14.93
2022-12-03T12:08:00.815Z,13.35
2022-12-03T12:10:45.166Z,14.27
2022-12-03T12:13:35.245Z,13.77
2022-12-03T12:16:05.347Z,13.07
2022-12-03T12:18:45.739Z,13.87
2022-12-03T12:21:43.622Z,14.23
2022-12-03T12:24:32.742Z,13.70
2022-12-03T12:27:14.420Z,14.40
2022-12-03T12:29:42.290Z,13.35
2022-12-03T12:32:09.005Z,13.40
2022-12-03T12:34:49.868Z,13.68
2022-12-03T12:37:28.576Z,12.83
2022-12-03T12:39:57.479Z,12.33
2022-12-03T12:42:38.428Z,12.77
2022-12-03T12:45:07.974Z,13.03
2022-12-03T12:47:35.763Z,12.33
2022-12-03T12:50:09.675Z,12.93
2022-12-03T12:52:47.887Z,12.93
2022-12-03T12:55:16.530Z,13.93
2022-12-03T12:57:44.313Z,13.50
2022-12-03T13:00:23.527Z,13.03
2022-12-03T13:03:01.938Z,13.93
2022-12-03T13:05:43.687Z,14.10
2022-12-03T13:08:32.416Z,14.20
2022-12-03T13:11:01.509Z,13.93
2022-12-03T13:13:43.322Z,15.47
2022-12-03T13:16:28.192Z,14.07
2022-12-03T13:19:00.306Z,13.63
2022-12-03T13:21:30.297Z,14.00
2022-12-03T13:23:57.725Z,13.67
2022-12-03T13:26:37.715Z,13.63
2022-12-03T13:29:15.556Z,14.63
2022-12-03T13:31:54.736Z,13.87
2022-12-03T13:34:26.796Z,14.83
2022-12-03T13:36:58.196Z,14.07
2022-12-03T13:39:30.977Z,14.43
2022-12-03T13:42:29.770Z,13.80
2022-12-03T13:44:56.650Z,13.67
2022-12-03T13:47:24.033Z,13.30
2022-12-03T13:50:01.137Z,13.50
2022-12-03T13:52:33.307Z,13.17
2022-12-03T13:55:02.972Z,12.53
2022-12-03T13:57:30.090Z,13.60
2022-12-03T13:59:57.022Z,13.07
2022-12-03T14:02:24.050Z,12.30
2022-12-03T14:04:56.787Z,14.35
2022-12-03T14:07:27.226Z,13.32
2022-12-03T14:09:54.719Z,12.55
2022-12-03T14:12:27.697Z,13.32
2022-12-03T14:14:54.875Z,13.67
2022-12-03T14:17:21.833Z,13.02
2022-12-03T14:19:48.974Z,12.60
2022-12-03T14:22:15.790Z,12.27
2022-12-03T14:24:42.832Z,11.35
2022-12-03T14:27:09.555Z,11.98
2022-12-03T14:29:36.666Z,13.05
2022-12-03T14:32:03.795Z,12.65
2022-12-03T14:34:30.793Z,12.70
2022-12-03T14:36:59.429Z,12.20
2022-12-03T14:39:26.165Z,12.57
2022-12-03T14:42:13.211Z,13.40
2022-12-03T14:44:48.160Z,12.93
2022-12-03T14:47:17.928Z,13.18
2022-12-03T14:49:45.891Z,13.93
2022-12-03T14:52:13.314Z,12.10
2022-12-03T14:54:49.337Z,12.90
2022-12-03T14:57:17.959Z,12.57
2022-12-03T14:59:46.166Z,13.10
2022-12-03T15:02:13.307Z,12.70
2022-12-03T15:04:41.206Z,14.15
2022-12-03T15:07:08.675Z,13.87
2022-12-03T15:09:35.694Z,14.07
2022-12-03T15:12:03.381Z,14.67
2022-12-03T15:14:30.621Z,13.80
2022-12-03T15:16:59.957Z,15.03
2022-12-03T15:19:27.593Z,15.67
2022-12-03T15:21:54.945Z,14.63
2022-12-03T15:24:21.818Z,13.40
2022-12-03T15:26:49.542Z,14.15
2022-12-03T15:29:16.961Z,14.88
2022-12-03T15:31:43.856Z,14.77
2022-12-03T15:34:11.214Z,15.30
2022-12-03T15:36:38.224Z,15.83
2022-12-03T15:39:05.324Z,15.70
2022-12-03T15:41:32.197Z,16.73
2022-12-03T15:44:01.959Z,16.67
2022-12-03T15:46:29.664Z,16.63
2022-12-03T15:49:01.237Z,16.53
2022-12-03T15:51:28.411Z,15.43
2022-12-03T15:53:55.293Z,15.13
2022-12-03T15:56:22.123Z,18.20
2022-12-03T15:58:49.001Z,17.40
2022-12-03T16:01:18.461Z,16.37
2022-12-03T16:03:45.572Z,15.80
2022-12-03T16:06:12.972Z,17.97
2022-12-03T16:08:39.964Z,16.55
2022-12-03T16:11:06.796Z,16.77
2022-12-03T16:13:34.540Z,17.20
2022-12-03T16:16:01.559Z,17.83
2022-12-03T16:18:30.531Z,16.60
2022-12-03T16:20:57.715Z,16.80
2022-12-03T16:23:24.458Z,17.83
2022-12-03T16:25:51.322Z,17.27
2022-12-03T16:28:18.235Z,17.80
2022-12-03T16:30:45.129Z,17.85
2022-12-03T16:33:11.902Z,19.20
2022-12-03T16:35:38.646Z,18.13
2022-12-03T16:38:05.676Z,18.37
2022-12-03T16:40:35.616Z,18.08
2022-12-03T16:43:04.359Z,18.77
2022-12-03T16:45:51.628Z,18.75
2022-12-03T16:48:18.738Z,18.88
2022-12-03T16:50:48.085Z,18.23
2022-12-03T16:53:15.804Z,17.90
2022-12-03T16:55:42.955Z,18.87
2022-12-03T16:58:09.933Z,18.03
2022-12-03T17:00:36.679Z,17.98
2022-12-03T17:03:03.643Z,18.70
2022-12-03T17:05:30.631Z,17.83
2022-12-03T17:07:57.566Z,18.30
2022-12-03T17:10:24.476Z,18.63
2022-12-03T17:15:39.217Z,18.23
2022-12-03T17:18:06.887Z,19.10
2022-12-03T17:20:35.330Z,18.13
2022-12-03T17:23:02.509Z,18.25
2022-12-03T17:25:30.228Z,18.08
2022-12-03T17:27:59.814Z,17.23
2022-12-03T17:30:27.085Z,18.02
2022-12-03T17:32:54.308Z,18.90
2022-12-03T17:35:21.169Z,18.17
2022-12-03T17:37:47.962Z,18.83
2022-12-03T17:40:15.552Z,18.80
2022-12-03T17:42:44.944Z,19.07
2022-12-03T17:45:12.670Z,19.90
2022-12-03T17:47:39.700Z,18.25
2022-12-03T17:50:07.602Z,20.40
2022-12-03T17:52:34.807Z,20.75
2022-12-03T17:55:11.278Z,19.13
2022-12-03T17:57:40.055Z,19.48
2022-12-03T18:00:07.529Z,19.67
2022-12-03T18:02:43.401Z,18.85
2022-12-03T18:05:10.632Z,18.83
2022-12-03T18:07:38.088Z,19.05
2022-12-03T18:10:05.435Z,20.02
2022-12-03T18:12:32.688Z,19.55
2022-12-03T18:15:17.891Z,20.17
2022-12-03T18:17:46.087Z,20.02
2022-12-03T18:20:13.136Z,19.70
2022-12-03T18:22:40.277Z,20.20
2022-12-03T18:25:07.704Z,19.33
2022-12-03T18:27:34.762Z,21.00
2022-12-03T18:30:01.853Z,20.45
2022-12-03T18:32:30.041Z,20.35
2022-12-03T18:34:57.556Z,20.45
2022-12-03T18:37:28.665Z,20.02
2022-12-03T18:39:57.040Z,21.45
2022-12-03T18:42:24.814Z,21.17
2022-12-03T18:44:53.791Z,22.48
2022-12-03T18:47:22.937Z,21.73
2022-12-03T18:49:50.414Z,22.77
2022-12-03T18:52:19.907Z,21.75
2022-12-03T18:54:47.642Z,24.02
2022-12-03T18:57:15.131Z,21.08
2022-12-03T18:59:42.114Z,20.38
2022-12-03T19:02:38.513Z,20.55
2022-12-03T19:05:02.500Z,21.55
2022-12-03T19:07:34.453Z,20.83
2022-12-03T19:10:01.539Z,20.52
2022-12-03T19:12:28.765Z,20.98
2022-12-03T19:14:58.525Z,20.25
2022-12-03T19:17:27.265Z,19.88
2022-12-03T19:19:54.956Z,19.55
2022-12-03T19:22:22.282Z,19.90
2022-12-03T19:24:49.342Z,19.70
2022-12-03T19:27:16.339Z,19.73
2022-12-03T19:29:43.518Z,19.00
2022-12-03T19:32:11.274Z,19.48
2022-12-03T19:34:38.987Z,19.45
2022-12-03T19:37:06.408Z,20.30
2022-12-03T19:39:33.703Z,20.17
2022-12-03T19:42:00.528Z,19.88
2022-12-03T19:44:27.639Z,18.52
2022-12-03T19:46:58.575Z,18.83
2022-12-03T19:49:32.025Z,19.67
2022-12-03T19:52:01.844Z,18.33
2022-12-03T19:54:31.474Z,19.48
2022-12-03T19:56:58.570Z,18.90
2022-12-03T19:59:25.831Z,17.40
2022-12-03T20:01:53.327Z,18.92
2022-12-03T20:04:20.411Z,18.45
2022-12-03T20:06:48.514Z,20.30
2022-12-03T20:09:18.327Z,19.55
2022-12-03T20:11:46.814Z,17.85
2022-12-03T20:14:16.439Z,18.25
2022-12-03T20:16:47.491Z,19.30
2022-12-03T20:19:18.691Z,18.00
2022-12-03T20:21:45.856Z,19.30
2022-12-03T20:24:15.189Z,18.42
2022-12-03T20:26:42.320Z,18.23
2022-12-03T20:29:13.168Z,17.85
2022-12-03T20:31:43.289Z,18.50
2022-12-03T20:34:19.647Z,18.25
2022-12-03T20:36:47.206Z,18.20
2022-12-03T20:39:14.559Z,18.60
2022-12-03T20:41:41.747Z,18.45
2022-12-03T20:44:09.719Z,18.10
2022-12-03T20:46:36.730Z,19.05
2022-12-03T20:49:04.210Z,19.48
2022-12-03T20:51:31.749Z,18.08
2022-12-03T20:53:59.783Z,18.67
2022-12-03T20:56:31.508Z,18.95
2022-12-03T20:59:07.296Z,18.25
2022-12-03T21:01:36.180Z,19.95
2022-12-03T21:04:04.990Z,20.60
2022-12-03T21:06:34.077Z,19.23
2022-12-03T21:09:02.583Z,19.00
2022-12-03T21:11:31.894Z,18.10
2022-12-03T21:13:59.475Z,18.73
2022-12-03T21:16:52.538Z,18.83
2022-12-03T21:19:19.948Z,18.75
2022-12-03T21:21:56.260Z,17.35
2022-12-03T21:24:23.091Z,18.23
2022-12-03T21:26:50.301Z,18.60
2022-12-03T21:29:17.241Z,17.95
2022-12-03T21:31:44.312Z,18.20
2022-12-03T21:34:11.129Z,18.00
2022-12-03T21:36:38.316Z,17.92
2022-12-03T21:39:05.940Z,18.70
2022-12-03T21:41:35.091Z,17.20
2022-12-03T21:44:14.319Z,18.08
2022-12-03T21:47:10.256Z,17.15
2022-12-03T21:49:28.936Z,17.35
2022-12-03T21:51:55.719Z,18.08
2022-12-03T21:54:22.598Z,18.98
2022-12-03T21:56:49.484Z,18.52
2022-12-03T21:59:16.676Z,17.50
2022-12-03T22:01:47.183Z,18.02
2022-12-03T22:04:14.541Z,17.63
2022-12-03T22:06:41.354Z,17.15
2022-12-03T22:09:08.164Z,17.92
2022-12-03T22:11:35.029Z,17.75
2022-12-03T22:14:04.740Z,17.65
2022-12-03T22:16:31.653Z,18.55
2022-12-03T22:18:58.919Z,16.83
2022-12-03T22:21:26.487Z,16.88
2022-12-03T22:23:59.495Z,18.92
2022-12-03T22:26:28.800Z,17.50
2022-12-03T22:28:55.576Z,17.33
2022-12-03T22:31:25.796Z,17.80
2022-12-03T22:33:52.748Z,16.88
2022-12-03T22:36:21.377Z,16.90
2022-12-03T22:38:49.820Z,16.98
2022-12-03T22:41:17.585Z,17.35
2022-12-03T22:43:45.244Z,17.55
2022-12-03T22:46:13.023Z,17.05
2022-12-03T22:48:41.522Z,18.98
2022-12-03T22:51:17.721Z,16.50
2022-12-03T22:53:44.710Z,17.33
2022-12-03T22:56:14.789Z,18.45
2022-12-03T22:58:43.641Z,18.50
2022-12-03T23:01:28.888Z,18.65
2022-12-03T23:04:07.033Z,19.17
2022-12-03T23:06:35.859Z,18.63
2022-12-03T23:09:04.458Z,19.17
2022-12-03T23:11:31.470Z,18.85
2022-12-03T23:14:01.903Z,18.45
2022-12-03T23:16:31.398Z,18.33
2022-12-03T23:18:59.705Z,19.25
2022-12-03T23:21:30.840Z,18.55
2022-12-03T23:23:59.426Z,18.88
2022-12-03T23:26:26.903Z,18.98
2022-12-03T23:28:53.783Z,18.58
2022-12-03T23:31:31.272Z,18.58
2022-12-03T23:33:58.967Z,19.08
2022-12-03T23:36:27.885Z,19.20
2022-12-03T23:38:55.141Z,17.65
2022-12-03T23:41:23.257Z,18.13
2022-12-03T23:43:50.072Z,17.45
2022-12-03T23:46:20.516Z,18.60
2022-12-03T23:48:48.012Z,19.48
2022-12-03T23:51:17.566Z,16.65
2022-12-03T23:53:45.028Z,17.27
2022-12-03T23:56:14.749Z,18.40
2022-12-03T23:58:41.568Z,18.00
